sensor_id;sensor_type;location;lat;lon;timestamp;pressure;altitude;pressure_sealevel;temperature;humidity
12897;BME280;6516;35.028;32.372;2023-07-31T00:02:25;98759.97;;;26.44;80.68
12897;BME280;6516;35.028;32.372;2023-07-31T00:04:53;98763.84;;;26.16;80.57
12897;BME280;6516;35.028;32.372;2023-07-31T00:07:21;98769.13;;;25.82;81.55
12897;BME280;6516;35.028;32.372;2023-07-31T00:09:49;98761.28;;;25.71;82.09
12897;BME280;6516;35.028;32.372;2023-07-31T00:12:18;98759.72;;;25.86;83.36
12897;BME280;6516;35.028;32.372;2023-07-31T00:14:46;98755.09;;;26.22;81.09
12897;BME280;6516;35.028;32.372;2023-07-31T00:17:13;98755.72;;;26.59;77.27
12897;BME280;6516;35.028;32.372;2023-07-31T00:19:41;98755.66;;;26.25;76.48
12897;BME280;6516;35.028;32.372;2023-07-31T00:22:09;98760.34;;;25.98;77.41
12897;BME280;6516;35.028;32.372;2023-07-31T00:24:36;98752.50;;;25.69;78.01
12897;BME280;6516;35.028;32.372;2023-07-31T00:27:05;98749.28;;;25.48;79.70
12897;BME280;6516;35.028;32.372;2023-07-31T00:29:34;98753.88;;;25.38;82.15
12897;BME280;6516;35.028;32.372;2023-07-31T00:32:02;98746.44;;;26.10;81.28
12897;BME280;6516;35.028;32.372;2023-07-31T00:34:30;98740.91;;;26.45;79.26
12897;BME280;6516;35.028;32.372;2023-07-31T00:36:58;98743.88;;;26.09;78.82
12897;BME280;6516;35.028;32.372;2023-07-31T00:39:25;98741.78;;;25.77;79.07
12897;BME280;6516;35.028;32.372;2023-07-31T00:41:53;98738.44;;;25.40;79.60
12897;BME280;6516;35.028;32.372;2023-07-31T00:44:21;98740.16;;;25.14;79.92
12897;BME280;6516;35.028;32.372;2023-07-31T00:46:50;98743.31;;;25.80;77.30
12897;BME280;6516;35.028;32.372;2023-07-31T00:49:18;98742.94;;;25.92;73.63
12897;BME280;6516;35.028;32.372;2023-07-31T00:51:46;98737.91;;;25.37;74.36
12897;BME280;6516;35.028;32.372;2023-07-31T00:54:14;98745.25;;;25.17;74.29
12897;BME280;6516;35.028;32.372;2023-07-31T00:56:45;98746.88;;;24.83;74.77
12897;BME280;6516;35.028;32.372;2023-07-31T00:59:14;98747.44;;;24.50;72.19
12897;BME280;6516;35.028;32.372;2023-07-31T01:01:44;98741.06;;;25.05;67.25
12897;BME280;6516;35.028;32.372;2023-07-31T01:04:14;98737.00;;;25.54;65.34
12897;BME280;6516;35.028;32.372;2023-07-31T01:06:47;98734.88;;;25.40;68.33
12897;BME280;6516;35.028;32.372;2023-07-31T01:09:28;98743.81;;;25.40;75.95
12897;BME280;6516;35.028;32.372;2023-07-31T01:12:03;98740.81;;;25.43;79.04
12897;BME280;6516;35.028;32.372;2023-07-31T01:14:31;98737.94;;;25.45;81.86
12897;BME280;6516;35.028;32.372;2023-07-31T01:17:00;98738.66;;;26.07;79.88
12897;BME280;6516;35.028;32.372;2023-07-31T01:19:29;98735.94;;;26.58;78.67
12897;BME280;6516;35.028;32.372;2023-07-31T01:22:11;98747.38;;;26.27;79.97
12897;BME280;6516;35.028;32.372;2023-07-31T01:25:03;98740.59;;;25.97;81.55
12897;BME280;6516;35.028;32.372;2023-07-31T01:27:46;98750.41;;;25.81;82.28
12897;BME280;6516;35.028;32.372;2023-07-31T01:30:23;98742.88;;;25.67;83.51
12897;BME280;6516;35.028;32.372;2023-07-31T01:32:54;98742.97;;;25.57;85.14
12897;BME280;6516;35.028;32.372;2023-07-31T01:35:23;98743.63;;;26.20;84.06
12897;BME280;6516;35.028;32.372;2023-07-31T01:37:52;98748.94;;;26.63;83.60
12897;BME280;6516;35.028;32.372;2023-07-31T01:40:21;98742.06;;;26.68;81.51
12897;BME280;6516;35.028;32.372;2023-07-31T01:42:50;98740.72;;;26.39;83.46
12897;BME280;6516;35.028;32.372;2023-07-31T01:45:18;98749.50;;;26.15;86.16
12897;BME280;6516;35.028;32.372;2023-07-31T01:47:46;98746.56;;;26.01;87.19
12897;BME280;6516;35.028;32.372;2023-07-31T01:50:13;98748.06;;;25.86;87.97
12897;BME280;6516;35.028;32.372;2023-07-31T01:52:41;98749.50;;;26.15;86.47
12897;BME280;6516;35.028;32.372;2023-07-31T01:55:09;98747.03;;;26.55;81.31
12897;BME280;6516;35.028;32.372;2023-07-31T01:57:37;98751.72;;;26.45;82.39
12897;BME280;6516;35.028;32.372;2023-07-31T02:00:07;98755.31;;;26.28;81.83
12897;BME280;6516;35.028;32.372;2023-07-31T02:02:35;98753.91;;;26.16;81.54
12897;BME280;6516;35.028;32.372;2023-07-31T02:05:03;98755.81;;;25.98;80.10
12897;BME280;6516;35.028;32.372;2023-07-31T02:07:31;98766.34;;;25.74;80.15
12897;BME280;6516;35.028;32.372;2023-07-31T02:09:59;98753.66;;;25.67;81.45
12897;BME280;6516;35.028;32.372;2023-07-31T02:12:27;98762.66;;;25.93;79.98
12897;BME280;6516;35.028;32.372;2023-07-31T02:14:56;98763.16;;;26.14;78.15
12897;BME280;6516;35.028;32.372;2023-07-31T02:17:25;98759.34;;;25.99;77.33
12897;BME280;6516;35.028;32.372;2023-07-31T02:19:53;98762.03;;;25.81;77.50
12897;BME280;6516;35.028;32.372;2023-07-31T02:22:21;98762.13;;;25.54;78.50
12897;BME280;6516;35.028;32.372;2023-07-31T02:24:49;98775.69;;;25.45;77.58
12897;BME280;6516;35.028;32.372;2023-07-31T02:27:16;98772.41;;;25.24;73.35
12897;BME280;6516;35.028;32.372;2023-07-31T02:29:44;98774.25;;;25.06;73.70
12897;BME280;6516;35.028;32.372;2023-07-31T02:32:12;98771.78;;;25.39;71.93
12897;BME280;6516;35.028;32.372;2023-07-31T02:34:41;98772.38;;;25.68;64.35
12897;BME280;6516;35.028;32.372;2023-07-31T02:37:09;98779.91;;;25.47;66.50
12897;BME280;6516;35.028;32.372;2023-07-31T02:39:37;98779.25;;;25.28;66.13
12897;BME280;6516;35.028;32.372;2023-07-31T02:42:05;98777.75;;;25.06;66.98
12897;BME280;6516;35.028;32.372;2023-07-31T02:44:32;98785.91;;;24.97;68.50
12897;BME280;6516;35.028;32.372;2023-07-31T02:47:00;98784.97;;;24.88;68.35
12897;BME280;6516;35.028;32.372;2023-07-31T02:49:28;98781.09;;;25.18;68.37
12897;BME280;6516;35.028;32.372;2023-07-31T02:51:58;98778.63;;;25.69;66.87
12897;BME280;6516;35.028;32.372;2023-07-31T02:54:25;98782.09;;;25.61;66.56
12897;BME280;6516;35.028;32.372;2023-07-31T02:56:53;98783.53;;;25.38;67.32
12897;BME280;6516;35.028;32.372;2023-07-31T02:59:21;98783.97;;;25.16;66.95
12897;BME280;6516;35.028;32.372;2023-07-31T03:01:50;98788.72;;;25.05;66.73
12897;BME280;6516;35.028;32.372;2023-07-31T03:04:18;98786.41;;;25.37;63.79
12897;BME280;6516;35.028;32.372;2023-07-31T03:06:46;98781.56;;;25.75;60.95
12897;BME280;6516;35.028;32.372;2023-07-31T03:09:16;98787.50;;;25.61;59.72
12897;BME280;6516;35.028;32.372;2023-07-31T03:11:44;98794.63;;;25.35;58.58
12897;BME280;6516;35.028;32.372;2023-07-31T03:14:12;98787.84;;;25.04;57.50
12897;BME280;6516;35.028;32.372;2023-07-31T03:16:39;98786.84;;;24.78;53.39
12897;BME280;6516;35.028;32.372;2023-07-31T03:19:07;98787.63;;;24.61;52.94
12897;BME280;6516;35.028;32.372;2023-07-31T03:21:35;98783.03;;;24.44;50.73
12897;BME280;6516;35.028;32.372;2023-07-31T03:24:03;98778.97;;;25.21;46.55
12897;BME280;6516;35.028;32.372;2023-07-31T03:26:33;98780.00;;;25.73;44.21
12897;BME280;6516;35.028;32.372;2023-07-31T03:29:02;98781.56;;;25.75;43.06
12897;BME280;6516;35.028;32.372;2023-07-31T03:31:30;98780.34;;;25.52;43.25
12897;BME280;6516;35.028;32.372;2023-07-31T03:33:58;98780.78;;;25.30;42.57
12897;BME280;6516;35.028;32.372;2023-07-31T03:36:25;98781.66;;;25.21;42.38
12897;BME280;6516;35.028;32.372;2023-07-31T03:38:53;98788.94;;;25.11;42.76
12897;BME280;6516;35.028;32.372;2023-07-31T03:41:21;98789.50;;;25.15;42.19
12897;BME280;6516;35.028;32.372;2023-07-31T03:43:51;98779.47;;;25.87;41.73
12897;BME280;6516;35.028;32.372;2023-07-31T03:46:19;98780.25;;;26.48;40.40
12897;BME280;6516;35.028;32.372;2023-07-31T03:48:47;98783.03;;;26.89;38.81
12897;BME280;6516;35.028;32.372;2023-07-31T03:51:15;98781.47;;;26.53;39.41
12897;BME280;6516;35.028;32.372;2023-07-31T03:53:43;98780.53;;;26.37;39.74
12897;BME280;6516;35.028;32.372;2023-07-31T03:56:12;98783.00;;;26.30;40.14
12897;BME280;6516;35.028;32.372;2023-07-31T03:58:40;98787.28;;;26.15;41.14
12897;BME280;6516;35.028;32.372;2023-07-31T04:01:09;98784.13;;;26.20;43.14
12897;BME280;6516;35.028;32.372;2023-07-31T04:03:37;98782.94;;;26.48;44.78
12897;BME280;6516;35.028;32.372;2023-07-31T04:06:04;98791.13;;;26.89;43.10
12897;BME280;6516;35.028;32.372;2023-07-31T04:08:34;98787.44;;;26.98;41.94
12897;BME280;6516;35.028;32.372;2023-07-31T04:11:01;98796.41;;;27.07;40.43
12897;BME280;6516;35.028;32.372;2023-07-31T04:13:29;98796.78;;;27.12;41.07
12897;BME280;6516;35.028;32.372;2023-07-31T04:15:57;98791.59;;;27.19;41.00
12897;BME280;6516;35.028;32.372;2023-07-31T04:18:26;98792.53;;;27.59;40.98
12897;BME280;6516;35.028;32.372;2023-07-31T04:20:56;98789.03;;;28.07;39.31
12897;BME280;6516;35.028;32.372;2023-07-31T04:23:26;98801.34;;;28.17;39.60
12897;BME280;6516;35.028;32.372;2023-07-31T04:25:54;98807.25;;;28.29;39.16
12897;BME280;6516;35.028;32.372;2023-07-31T04:28:22;98803.94;;;28.43;38.63
12897;BME280;6516;35.028;32.372;2023-07-31T04:30:51;98806.72;;;28.65;38.38
12897;BME280;6516;35.028;32.372;2023-07-31T04:33:19;98815.19;;;29.25;40.91
12897;BME280;6516;35.028;32.372;2023-07-31T04:35:53;98812.69;;;29.99;40.40
12897;BME280;6516;35.028;32.372;2023-07-31T04:38:21;98806.47;;;30.50;39.82
12897;BME280;6516;35.028;32.372;2023-07-31T04:40:49;98811.69;;;30.88;40.80
12897;BME280;6516;35.028;32.372;2023-07-31T04:43:17;98804.66;;;31.08;41.20
12897;BME280;6516;35.028;32.372;2023-07-31T04:45:45;98812.91;;;31.15;41.28
12897;BME280;6516;35.028;32.372;2023-07-31T04:48:16;98804.34;;;31.32;39.86
12897;BME280;6516;35.028;32.372;2023-07-31T04:50:44;98816.38;;;31.59;39.79
12897;BME280;6516;35.028;32.372;2023-07-31T04:53:13;98812.31;;;31.84;36.76
12897;BME280;6516;35.028;32.372;2023-07-31T04:55:41;98816.19;;;32.17;35.43
12897;BME280;6516;35.028;32.372;2023-07-31T04:58:08;98811.47;;;32.53;34.92
12897;BME280;6516;35.028;32.372;2023-07-31T05:00:36;98803.84;;;32.97;32.18
12897;BME280;6516;35.028;32.372;2023-07-31T05:03:04;98804.13;;;33.62;31.57
12897;BME280;6516;35.028;32.372;2023-07-31T05:05:32;98816.03;;;34.21;30.78
12897;BME280;6516;35.028;32.372;2023-07-31T05:08:00;98812.47;;;34.66;29.95
12897;BME280;6516;35.028;32.372;2023-07-31T05:10:29;98817.66;;;35.26;31.11
12897;BME280;6516;35.028;32.372;2023-07-31T05:12:57;98808.63;;;35.63;28.81
12897;BME280;6516;35.028;32.372;2023-07-31T05:15:25;98810.00;;;36.16;30.08
12897;BME280;6516;35.028;32.372;2023-07-31T05:17:53;98816.41;;;36.41;31.41
12897;BME280;6516;35.028;32.372;2023-07-31T05:20:20;98814.13;;;36.56;30.88
12897;BME280;6516;35.028;32.372;2023-07-31T05:22:48;98824.75;;;36.77;32.29
12897;BME280;6516;35.028;32.372;2023-07-31T05:25:17;98818.19;;;36.78;34.46
12897;BME280;6516;35.028;32.372;2023-07-31T05:27:46;98826.44;;;36.78;35.45
12897;BME280;6516;35.028;32.372;2023-07-31T05:30:35;98836.66;;;36.89;35.40
12897;BME280;6516;35.028;32.372;2023-07-31T05:33:03;98833.59;;;36.79;35.74
12897;BME280;6516;35.028;32.372;2023-07-31T05:35:31;98830.56;;;36.87;35.53
12897;BME280;6516;35.028;32.372;2023-07-31T05:37:59;98846.41;;;36.85;34.93
12897;BME280;6516;35.028;32.372;2023-07-31T05:40:27;98845.34;;;36.86;34.39
12897;BME280;6516;35.028;32.372;2023-07-31T05:42:56;98843.28;;;36.82;33.49
12897;BME280;6516;35.028;32.372;2023-07-31T05:45:25;98841.53;;;36.87;34.63
12897;BME280;6516;35.028;32.372;2023-07-31T05:47:53;98844.97;;;37.01;31.66
12897;BME280;6516;35.028;32.372;2023-07-31T05:50:21;98839.69;;;36.99;31.34
12897;BME280;6516;35.028;32.372;2023-07-31T05:52:50;98839.81;;;36.68;33.23
12897;BME280;6516;35.028;32.372;2023-07-31T05:55:18;98841.03;;;36.72;33.41
12897;BME280;6516;35.028;32.372;2023-07-31T05:57:46;98840.41;;;36.46;34.84
12897;BME280;6516;35.028;32.372;2023-07-31T06:00:17;98842.09;;;36.71;33.81
12897;BME280;6516;35.028;32.372;2023-07-31T06:02:44;98843.56;;;36.74;33.26
12897;BME280;6516;35.028;32.372;2023-07-31T06:05:12;98844.53;;;36.55;32.27
12897;BME280;6516;35.028;32.372;2023-07-31T06:07:40;98845.63;;;36.54;31.13
12897;BME280;6516;35.028;32.372;2023-07-31T06:10:09;98841.75;;;36.61;30.70
12897;BME280;6516;35.028;32.372;2023-07-31T06:12:37;98840.44;;;36.70;30.20
12897;BME280;6516;35.028;32.372;2023-07-31T06:15:06;98848.69;;;36.88;28.17
12897;BME280;6516;35.028;32.372;2023-07-31T06:17:35;98843.44;;;37.05;28.31
12897;BME280;6516;35.028;32.372;2023-07-31T06:20:04;98853.09;;;37.14;27.95
12897;BME280;6516;35.028;32.372;2023-07-31T06:22:34;98852.44;;;37.36;26.57
12897;BME280;6516;35.028;32.372;2023-07-31T06:25:02;98859.06;;;37.29;27.12
12897;BME280;6516;35.028;32.372;2023-07-31T06:27:30;98857.94;;;37.36;26.90
12897;BME280;6516;35.028;32.372;2023-07-31T06:29:57;98852.03;;;37.51;26.50
12897;BME280;6516;35.028;32.372;2023-07-31T06:32:25;98858.53;;;37.56;27.01
12897;BME280;6516;35.028;32.372;2023-07-31T06:34:54;98854.41;;;37.29;32.08
12897;BME280;6516;35.028;32.372;2023-07-31T06:37:22;98859.06;;;37.29;32.62
12897;BME280;6516;35.028;32.372;2023-07-31T06:39:50;98861.91;;;36.98;34.62
12897;BME280;6516;35.028;32.372;2023-07-31T06:42:18;98862.53;;;37.00;34.83
12897;BME280;6516;35.028;32.372;2023-07-31T06:44:45;98857.25;;;36.98;33.42
12897;BME280;6516;35.028;32.372;2023-07-31T06:47:13;98861.28;;;37.20;35.55
12897;BME280;6516;35.028;32.372;2023-07-31T06:49:41;98862.00;;;37.09;35.43
12897;BME280;6516;35.028;32.372;2023-07-31T06:52:10;98859.66;;;37.13;36.74
12897;BME280;6516;35.028;32.372;2023-07-31T06:54:38;98870.97;;;37.23;35.63
12897;BME280;6516;35.028;32.372;2023-07-31T06:57:06;98867.22;;;37.17;35.57
12897;BME280;6516;35.028;32.372;2023-07-31T06:59:34;98868.00;;;37.00;35.32
12897;BME280;6516;35.028;32.372;2023-07-31T07:02:01;98872.28;;;36.71;36.09
12897;BME280;6516;35.028;32.372;2023-07-31T07:04:29;98882.41;;;36.46;36.53
12897;BME280;6516;35.028;32.372;2023-07-31T07:06:57;98883.59;;;36.57;38.50
12897;BME280;6516;35.028;32.372;2023-07-31T07:09:26;98885.03;;;36.59;38.20
12897;BME280;6516;35.028;32.372;2023-07-31T07:11:53;98882.06;;;36.85;36.94
12897;BME280;6516;35.028;32.372;2023-07-31T07:14:21;98884.41;;;37.06;36.30
12897;BME280;6516;35.028;32.372;2023-07-31T07:16:51;98884.97;;;37.15;37.27
12897;BME280;6516;35.028;32.372;2023-07-31T07:19:19;98886.28;;;37.30;36.96
12897;BME280;6516;35.028;32.372;2023-07-31T07:21:46;98888.53;;;37.22;37.16
12897;BME280;6516;35.028;32.372;2023-07-31T07:24:14;98892.13;;;37.22;36.63
12897;BME280;6516;35.028;32.372;2023-07-31T07:26:43;98893.56;;;37.25;37.58
12897;BME280;6516;35.028;32.372;2023-07-31T07:29:11;98891.72;;;37.37;36.56
12897;BME280;6516;35.028;32.372;2023-07-31T07:31:39;98893.59;;;37.61;35.80
12897;BME280;6516;35.028;32.372;2023-07-31T07:34:06;98900.22;;;37.71;35.76
12897;BME280;6516;35.028;32.372;2023-07-31T07:36:34;98903.34;;;37.93;35.50
12897;BME280;6516;35.028;32.372;2023-07-31T07:39:03;98892.75;;;38.26;37.08
12897;BME280;6516;35.028;32.372;2023-07-31T07:41:31;98889.66;;;38.34;36.11
12897;BME280;6516;35.028;32.372;2023-07-31T07:44:01;98893.00;;;38.36;35.82
12897;BME280;6516;35.028;32.372;2023-07-31T07:46:31;98890.38;;;38.41;34.55
12897;BME280;6516;35.028;32.372;2023-07-31T07:48:59;98895.22;;;38.16;37.60
12897;BME280;6516;35.028;32.372;2023-07-31T07:51:27;98887.41;;;38.13;36.96
12897;BME280;6516;35.028;32.372;2023-07-31T07:53:57;98892.75;;;38.26;36.61
12897;BME280;6516;35.028;32.372;2023-07-31T07:56:25;98887.50;;;38.36;38.04
12897;BME280;6516;35.028;32.372;2023-07-31T07:58:54;98881.41;;;38.34;37.48
12897;BME280;6516;35.028;32.372;2023-07-31T08:01:23;98887.63;;;38.41;37.09
12897;BME280;6516;35.028;32.372;2023-07-31T08:03:51;98896.19;;;38.51;37.30
12897;BME280;6516;35.028;32.372;2023-07-31T08:06:19;98898.59;;;38.59;37.00
12897;BME280;6516;35.028;32.372;2023-07-31T08:08:47;98898.00;;;38.57;35.68
12897;BME280;6516;35.028;32.372;2023-07-31T08:11:14;98894.19;;;38.81;36.62
12897;BME280;6516;35.028;32.372;2023-07-31T08:13:42;98895.22;;;39.09;36.00
12897;BME280;6516;35.028;32.372;2023-07-31T08:16:10;98891.47;;;39.27;33.36
12897;BME280;6516;35.028;32.372;2023-07-31T08:18:39;98896.66;;;39.46;35.76
12897;BME280;6516;35.028;32.372;2023-07-31T08:21:08;98890.16;;;39.41;33.19
12897;BME280;6516;35.028;32.372;2023-07-31T08:23:36;98889.19;;;39.58;32.82
12897;BME280;6516;35.028;32.372;2023-07-31T08:26:05;98901.19;;;39.52;33.61
12897;BME280;6516;35.028;32.372;2023-07-31T08:28:33;98897.13;;;39.43;31.52
12897;BME280;6516;35.028;32.372;2023-07-31T08:31:02;98889.41;;;39.68;33.80
12897;BME280;6516;35.028;32.372;2023-07-31T08:33:30;98896.22;;;39.89;34.02
12897;BME280;6516;35.028;32.372;2023-07-31T08:35:59;98896.13;;;40.12;33.51
12897;BME280;6516;35.028;32.372;2023-07-31T08:38:27;98890.59;;;40.12;32.36
12897;BME280;6516;35.028;32.372;2023-07-31T08:40:56;98888.41;;;40.14;32.96
12897;BME280;6516;35.028;32.372;2023-07-31T08:43:26;98901.34;;;39.97;33.83
12897;BME280;6516;35.028;32.372;2023-07-31T08:45:54;98896.06;;;39.96;34.47
12897;BME280;6516;35.028;32.372;2023-07-31T08:48:23;98891.19;;;39.86;35.06
12897;BME280;6516;35.028;32.372;2023-07-31T08:50:51;98888.56;;;39.80;36.57
12897;BME280;6516;35.028;32.372;2023-07-31T08:53:21;98886.41;;;39.70;35.36
12897;BME280;6516;35.028;32.372;2023-07-31T08:55:50;98891.06;;;39.81;35.08
12897;BME280;6516;35.028;32.372;2023-07-31T08:58:20;98891.84;;;40.05;34.55
12897;BME280;6516;35.028;32.372;2023-07-31T09:00:48;98886.47;;;40.26;33.90
12897;BME280;6516;35.028;32.372;2023-07-31T09:03:18;98890.16;;;40.04;32.38
12897;BME280;6516;35.028;32.372;2023-07-31T09:05:47;98888.81;;;40.18;33.82
12897;BME280;6516;35.028;32.372;2023-07-31T09:08:18;98879.28;;;40.25;31.91
12897;BME280;6516;35.028;32.372;2023-07-31T09:10:48;98879.69;;;40.62;30.93
12897;BME280;6516;35.028;32.372;2023-07-31T09:13:17;98881.47;;;40.68;31.08
12897;BME280;6516;35.028;32.372;2023-07-31T09:15:46;98875.19;;;40.72;29.30
12897;BME280;6516;35.028;32.372;2023-07-31T09:18:14;98888.25;;;40.49;32.17
12897;BME280;6516;35.028;32.372;2023-07-31T09:20:44;98880.88;;;40.66;32.67
12897;BME280;6516;35.028;32.372;2023-07-31T09:23:13;98881.31;;;40.74;33.51
12897;BME280;6516;35.028;32.372;2023-07-31T09:25:46;98878.34;;;40.20;37.25
12897;BME280;6516;35.028;32.372;2023-07-31T09:28:14;98876.31;;;40.43;37.15
12897;BME280;6516;35.028;32.372;2023-07-31T09:30:46;98885.09;;;40.12;39.04
12897;BME280;6516;35.028;32.372;2023-07-31T09:33:15;98883.19;;;40.57;35.51
12897;BME280;6516;35.028;32.372;2023-07-31T09:35:44;98873.47;;;40.55;38.57
12897;BME280;6516;35.028;32.372;2023-07-31T09:38:12;98874.53;;;40.09;38.70
12897;BME280;6516;35.028;32.372;2023-07-31T09:40:42;98867.53;;;39.90;38.73
12897;BME280;6516;35.028;32.372;2023-07-31T09:43:13;98871.59;;;39.99;39.82
12897;BME280;6516;35.028;32.372;2023-07-31T09:45:45;98869.56;;;39.95;38.94
12897;BME280;6516;35.028;32.372;2023-07-31T09:48:14;98866.88;;;39.60;38.95
12897;BME280;6516;35.028;32.372;2023-07-31T09:50:44;98879.09;;;39.76;38.45
12897;BME280;6516;35.028;32.372;2023-07-31T09:53:13;98862.03;;;39.90;37.81
12897;BME280;6516;35.028;32.372;2023-07-31T09:55:41;98863.84;;;40.13;38.83
12897;BME280;6516;35.028;32.372;2023-07-31T09:58:12;98857.44;;;39.96;39.60
12897;BME280;6516;35.028;32.372;2023-07-31T10:00:40;98870.56;;;40.17;39.72
12897;BME280;6516;35.028;32.372;2023-07-31T10:03:09;98868.41;;;40.19;39.34
12897;BME280;6516;35.028;32.372;2023-07-31T10:05:40;98862.31;;;40.05;39.28
12897;BME280;6516;35.028;32.372;2023-07-31T10:08:10;98872.72;;;40.15;39.37
12897;BME280;6516;35.028;32.372;2023-07-31T10:10:44;98873.84;;;39.74;40.81
12897;BME280;6516;35.028;32.372;2023-07-31T10:13:13;98879.78;;;39.31;41.51
12897;BME280;6516;35.028;32.372;2023-07-31T10:15:42;98885.81;;;38.87;42.68
12897;BME280;6516;35.028;32.372;2023-07-31T10:18:10;98878.25;;;38.60;42.40
12897;BME280;6516;35.028;32.372;2023-07-31T10:20:39;98873.47;;;38.55;41.79
12897;BME280;6516;35.028;32.372;2023-07-31T10:23:08;98868.13;;;38.42;41.96
12897;BME280;6516;35.028;32.372;2023-07-31T10:25:37;98871.28;;;38.46;42.79
12897;BME280;6516;35.028;32.372;2023-07-31T10:28:08;98863.31;;;38.67;42.90
12897;BME280;6516;35.028;32.372;2023-07-31T10:30:37;98871.53;;;38.56;42.91
12897;BME280;6516;35.028;32.372;2023-07-31T10:33:05;98865.88;;;38.10;44.28
12897;BME280;6516;35.028;32.372;2023-07-31T10:35:34;98865.75;;;38.05;44.08
12897;BME280;6516;35.028;32.372;2023-07-31T10:38:09;98863.91;;;38.28;44.05
12897;BME280;6516;35.028;32.372;2023-07-31T10:40:38;98857.13;;;38.01;44.94
12897;BME280;6516;35.028;32.372;2023-07-31T10:43:08;98861.47;;;37.91;44.26
12897;BME280;6516;35.028;32.372;2023-07-31T10:45:38;98858.25;;;37.94;44.36
12897;BME280;6516;35.028;32.372;2023-07-31T10:48:07;98860.34;;;37.80;44.55
12897;BME280;6516;35.028;32.372;2023-07-31T10:50:47;98856.56;;;37.81;44.79
12897;BME280;6516;35.028;32.372;2023-07-31T10:53:23;98862.53;;;37.60;45.03
12897;BME280;6516;35.028;32.372;2023-07-31T10:55:51;98859.03;;;37.83;43.91
12897;BME280;6516;35.028;32.372;2023-07-31T10:58:22;98853.72;;;37.70;44.01
12897;BME280;6516;35.028;32.372;2023-07-31T11:00:51;98852.38;;;37.43;44.07
12897;BME280;6516;35.028;32.372;2023-07-31T11:03:25;98854.56;;;37.70;43.52
12897;BME280;6516;35.028;32.372;2023-07-31T11:06:00;98858.16;;;37.53;44.46
12897;BME280;6516;35.028;32.372;2023-07-31T11:08:30;98855.94;;;37.61;44.82
12897;BME280;6516;35.028;32.372;2023-07-31T11:11:05;98841.31;;;37.79;44.16
12897;BME280;6516;35.028;32.372;2023-07-31T11:13:42;98844.28;;;37.95;44.05
12897;BME280;6516;35.028;32.372;2023-07-31T11:16:12;98835.47;;;37.75;43.64
12897;BME280;6516;35.028;32.372;2023-07-31T11:18:41;98840.06;;;37.45;43.79
12897;BME280;6516;35.028;32.372;2023-07-31T11:21:12;98834.41;;;37.58;44.06
12897;BME280;6516;35.028;32.372;2023-07-31T11:23:41;98838.72;;;37.18;45.00
12897;BME280;6516;35.028;32.372;2023-07-31T11:26:12;98836.03;;;37.30;44.29
12897;BME280;6516;35.028;32.372;2023-07-31T11:28:41;98839.31;;;37.38;43.20
12897;BME280;6516;35.028;32.372;2023-07-31T11:31:09;98836.25;;;37.28;42.79
12897;BME280;6516;35.028;32.372;2023-07-31T11:33:38;98850.66;;;37.42;42.92
12897;BME280;6516;35.028;32.372;2023-07-31T11:36:05;98845.84;;;37.55;42.93
12897;BME280;6516;35.028;32.372;2023-07-31T11:38:34;98843.16;;;37.85;42.53
12897;BME280;6516;35.028;32.372;2023-07-31T11:41:04;98840.38;;;37.73;43.09
12897;BME280;6516;35.028;32.372;2023-07-31T11:43:32;98840.06;;;37.81;43.03
12897;BME280;6516;35.028;32.372;2023-07-31T11:46:03;98833.47;;;37.82;41.66
12897;BME280;6516;35.028;32.372;2023-07-31T11:48:33;98821.63;;;38.11;42.06
12897;BME280;6516;35.028;32.372;2023-07-31T11:51:03;98823.81;;;37.91;42.23
12897;BME280;6516;35.028;32.372;2023-07-31T11:53:37;98823.63;;;38.34;41.85
12897;BME280;6516;35.028;32.372;2023-07-31T11:56:13;98823.53;;;38.40;40.48
12897;BME280;6516;35.028;32.372;2023-07-31T11:58:43;98824.72;;;38.03;40.68
12897;BME280;6516;35.028;32.372;2023-07-31T12:01:16;98826.66;;;37.85;39.34
12897;BME280;6516;35.028;32.372;2023-07-31T12:03:46;98830.25;;;37.85;40.48
12897;BME280;6516;35.028;32.372;2023-07-31T12:06:14;98818.38;;;37.73;40.90
12897;BME280;6516;35.028;32.372;2023-07-31T12:08:42;98827.88;;;37.41;38.87
12897;BME280;6516;35.028;32.372;2023-07-31T12:11:10;98827.06;;;37.52;39.97
12897;BME280;6516;35.028;32.372;2023-07-31T12:13:39;98829.81;;;37.52;39.43
12897;BME280;6516;35.028;32.372;2023-07-31T12:16:07;98827.22;;;37.39;40.53
12897;BME280;6516;35.028;32.372;2023-07-31T12:18:37;98838.44;;;37.38;41.51
12897;BME280;6516;35.028;32.372;2023-07-31T12:21:07;98834.47;;;37.70;41.57
12897;BME280;6516;35.028;32.372;2023-07-31T12:23:37;98831.97;;;37.68;42.77
12897;BME280;6516;35.028;32.372;2023-07-31T12:26:10;98837.06;;;37.47;42.06
12897;BME280;6516;35.028;32.372;2023-07-31T12:28:41;98831.53;;;36.75;43.97
12897;BME280;6516;35.028;32.372;2023-07-31T12:31:10;98834.84;;;36.52;44.42
12897;BME280;6516;35.028;32.372;2023-07-31T12:33:41;98831.72;;;36.49;45.19
12897;BME280;6516;35.028;32.372;2023-07-31T12:36:11;98833.03;;;36.46;45.76
12897;BME280;6516;35.028;32.372;2023-07-31T12:38:42;98825.09;;;36.32;45.55
12897;BME280;6516;35.028;32.372;2023-07-31T12:41:10;98840.69;;;36.07;45.04
12897;BME280;6516;35.028;32.372;2023-07-31T12:43:39;98837.31;;;36.36;46.14
12897;BME280;6516;35.028;32.372;2023-07-31T12:46:07;98828.72;;;36.32;46.26
12897;BME280;6516;35.028;32.372;2023-07-31T12:48:36;98827.63;;;36.33;46.97
12897;BME280;6516;35.028;32.372;2023-07-31T12:51:06;98832.00;;;36.41;46.49
12897;BME280;6516;35.028;32.372;2023-07-31T12:53:34;98838.44;;;35.91;46.51
12897;BME280;6516;35.028;32.372;2023-07-31T12:56:03;98835.44;;;35.55;49.38
12897;BME280;6516;35.028;32.372;2023-07-31T12:58:31;98825.91;;;35.64;48.35
12897;BME280;6516;35.028;32.372;2023-07-31T13:00:58;98825.75;;;35.52;48.21
12897;BME280;6516;35.028;32.372;2023-07-31T13:03:27;98830.91;;;35.23;49.45
12897;BME280;6516;35.028;32.372;2023-07-31T13:05:55;98831.78;;;35.10;49.48
12897;BME280;6516;35.028;32.372;2023-07-31T13:08:24;98833.25;;;35.19;48.74
12897;BME280;6516;35.028;32.372;2023-07-31T13:10:52;98833.66;;;35.16;48.57